Prague, Czech Republic

3:37 PM CET on February 11, 2016 (GMT +0100)
Ruzyne | | Change Station
CLOSE
Current Station
Airport
Location: Prague,
Elevation: 1198 ft
Nearby Weather Stations

Elev 1198 ft 50.10 °N, 14.26 °E | Updated 7 minutes ago

Partly Cloudy
Partly Cloudy
41 °F
Feels Like 34 °F
N
13
Wind Variable Wind from West

Today
High -- | Low -- °F
--% Chance of Precip.
Yesterday
High -- | Low -- °F
Precip. -- in
Pressure 29.62 in
Visibility 6.2 miles
Clouds Few 3500 ft
Windchill 34 °F
Dew Point 27 °F
Humidity 57%
Rainfall 0.00 in
Snow Depth Not available.
7:21 AM 5:13 PM
Waxing Crescent, 12% visible
METAR LKPR 111430Z 26011KT 9999 FEW035 05/M03 Q1003 NOSIG
Pressure 29.62 in
Visibility 6.2 miles
Clouds Few 3500 ft
Windchill 34 °F
Dew Point 27 °F
Humidity 57%
Rainfall 0.00 in
Snow Depth Not available.
7:21 AM 5:13 PM
Waxing Crescent, 12% visible
METAR LKPR 111430Z 26011KT 9999 FEW035 05/M03 Q1003 NOSIG

10-Day Weather Forecast

Almanac

Astronomy

Feb. 11, 2016 Rise Set
Actual Time
Civil Twilight
Nautical Twilight
Astronomical Twilight
Moon
Length of Visible Light
Length of Day
Tomorrow will be .
, % of the Moon is Illuminated

Today's Extremes

Country Highs Country Lows

Community

WunderPhotos

Upload Photos

1,892,054 photos uploaded!

WunderBlog® & News

Nearby

Air Quality

  Air Quality AQ Index Pollutant
Not available.

Snow Depth

Station Depth Elevation

Earthquake Activity

City Distance Mag. Time & Date
Minimum magnitude displayed is 2.5.

Coastal Water Temperatures

Place Temperature

Stations

Nearby Weather Stations

Station Location Temp. Windchill Dew Point Humidity Wind Precip. Elev Updated Type